createdAt,value
2018-05-07T00:02:19.521Z,52.20
2018-05-07T00:04:47.286Z,52.40
2018-05-07T00:07:15.157Z,52.20
2018-05-07T00:09:43.048Z,53.30
2018-05-07T00:12:13.658Z,52.70
2018-05-07T00:14:43.037Z,52.70
2018-05-07T00:17:13.058Z,51.50
2018-05-07T00:19:42.200Z,53.30
2018-05-07T00:22:10.764Z,52.40
2018-05-07T00:24:38.716Z,52.40
2018-05-07T00:27:06.584Z,53.60
2018-05-07T00:29:34.342Z,52.90
2018-05-07T00:32:02.222Z,53.30
2018-05-07T00:34:30.183Z,53.50
2018-05-07T00:36:58.059Z,52.90
2018-05-07T00:39:26.019Z,53.60
2018-05-07T00:41:53.885Z,51.90
2018-05-07T00:44:21.680Z,51.50
2018-05-07T00:46:49.618Z,53.20
2018-05-07T00:49:17.485Z,53.20
2018-05-07T00:51:45.351Z,52.50
2018-05-07T00:54:13.219Z,53.20
2018-05-07T00:56:41.085Z,53.00
2018-05-07T00:59:08.954Z,52.70
2018-05-07T01:01:36.820Z,52.70
2018-05-07T01:04:04.805Z,52.70
2018-05-07T01:06:32.684Z,53.00
2018-05-07T01:09:00.622Z,53.80
2018-05-07T01:11:28.492Z,51.70
2018-05-07T01:13:56.356Z,52.40
2018-05-07T01:16:24.324Z,52.10
2018-05-07T01:18:52.084Z,53.00
2018-05-07T01:21:19.955Z,52.60
2018-05-07T01:23:47.822Z,52.70
2018-05-07T01:26:15.688Z,53.20
2018-05-07T01:28:43.657Z,53.00
2018-05-07T01:31:11.524Z,54.50
2018-05-07T01:33:39.317Z,52.60
2018-05-07T01:36:07.257Z,53.10
2018-05-07T01:38:35.123Z,53.70
2018-05-07T01:41:03.097Z,53.60
2018-05-07T01:43:30.959Z,54.00
2018-05-07T01:45:58.826Z,53.40
2018-05-07T01:48:26.693Z,53.30
2018-05-07T01:50:54.476Z,53.20
2018-05-07T01:53:22.323Z,53.40
2018-05-07T01:55:50.190Z,53.20
2018-05-07T01:58:17.945Z,52.40
2018-05-07T02:00:45.718Z,52.70
2018-05-07T02:03:13.584Z,53.30
2018-05-07T02:05:41.553Z,53.40
2018-05-07T02:08:09.348Z,52.80
2018-05-07T02:10:37.286Z,53.90
2018-05-07T02:13:05.255Z,55.90
2018-05-07T02:15:33.049Z,53.60
2018-05-07T02:18:00.992Z,54.40
2018-05-07T02:20:28.854Z,53.20
2018-05-07T02:22:56.721Z,54.40
2018-05-07T02:25:24.589Z,54.80
2018-05-07T02:27:52.456Z,54.30
2018-05-07T02:30:21.038Z,53.40
2018-05-07T02:32:48.904Z,53.40
2018-05-07T02:35:16.772Z,54.20
2018-05-07T02:37:44.740Z,54.50
2018-05-07T02:40:12.607Z,55.10
2018-05-07T02:42:40.476Z,54.10
2018-05-07T02:45:08.445Z,54.10
2018-05-07T02:47:36.315Z,55.00
2018-05-07T02:50:04.381Z,54.80
2018-05-07T02:52:33.067Z,55.20
2018-05-07T02:55:00.823Z,55.30
2018-05-07T02:57:28.697Z,55.70
2018-05-07T02:59:56.564Z,55.10
2018-05-07T03:02:24.429Z,53.70
2018-05-07T03:04:52.295Z,54.10
2018-05-07T03:07:20.162Z,55.50
2018-05-07T03:09:48.031Z,54.90
2018-05-07T03:12:16.104Z,54.40
2018-05-07T03:14:43.872Z,54.80
2018-05-07T03:17:11.730Z,53.50
2018-05-07T03:19:39.484Z,55.70
2018-05-07T03:22:07.361Z,54.40
2018-05-07T03:24:35.227Z,55.40
2018-05-07T03:27:03.094Z,55.80
2018-05-07T03:29:30.962Z,55.20
2018-05-07T03:31:58.831Z,54.50
2018-05-07T03:34:26.694Z,54.90
2018-05-07T03:36:54.564Z,56.30
2018-05-07T03:39:22.530Z,53.80
2018-05-07T03:41:50.498Z,55.10
2018-05-07T03:44:18.365Z,55.10
2018-05-07T03:46:46.436Z,56.50
2018-05-07T03:49:14.303Z,55.80
2018-05-07T03:51:42.150Z,56.90
2018-05-07T03:54:09.934Z,56.90
2018-05-07T03:56:37.800Z,56.80
2018-05-07T03:59:05.565Z,56.60
2018-05-07T04:01:34.358Z,56.50
2018-05-07T04:04:02.322Z,56.80
2018-05-07T04:06:30.188Z,55.70
2018-05-07T04:08:58.057Z,56.00
2018-05-07T04:11:25.921Z,56.40
2018-05-07T04:13:53.787Z,55.50
2018-05-07T04:16:33.635Z,56.40
2018-05-07T04:19:13.278Z,55.00
2018-05-07T04:21:41.145Z,55.50
2018-05-07T04:24:09.114Z,54.80
2018-05-07T04:26:36.983Z,55.10
2018-05-07T04:29:04.847Z,54.60
2018-05-07T04:31:32.713Z,55.40
2018-05-07T04:34:00.504Z,54.80
2018-05-07T04:36:28.446Z,55.30
2018-05-07T04:38:56.229Z,55.40
2018-05-07T04:41:24.076Z,55.10
2018-05-07T04:43:51.943Z,54.90
2018-05-07T04:46:19.697Z,54.90
2018-05-07T04:48:47.654Z,55.50
2018-05-07T04:51:16.261Z,54.60
2018-05-07T04:53:44.126Z,54.50
2018-05-07T04:56:11.993Z,54.70
2018-05-07T04:58:39.963Z,55.50
2018-05-07T05:01:07.818Z,54.80
2018-05-07T05:03:35.574Z,55.20
2018-05-07T05:06:03.458Z,55.20
2018-05-07T05:08:31.325Z,54.90
2018-05-07T05:10:59.121Z,55.20
2018-05-07T05:13:27.058Z,55.40
2018-05-07T05:15:54.925Z,55.70
2018-05-07T05:18:22.793Z,56.00
2018-05-07T05:20:50.693Z,55.60
2018-05-07T05:23:19.348Z,53.60
2018-05-07T05:25:47.316Z,53.60
2018-05-07T05:28:15.107Z,53.20
2018-05-07T05:30:43.046Z,52.80
2018-05-07T05:33:10.914Z,53.80
2018-05-07T05:35:38.708Z,54.00
2018-05-07T05:38:07.290Z,54.30
2018-05-07T05:40:35.229Z,54.30
2018-05-07T05:43:03.097Z,53.30
2018-05-07T05:45:30.963Z,52.40
2018-05-07T05:47:58.828Z,53.80
2018-05-07T05:50:26.695Z,54.60
2018-05-07T05:52:54.561Z,54.30
2018-05-07T05:55:22.429Z,52.00
2018-05-07T05:57:50.221Z,53.60
2018-05-07T06:00:19.600Z,54.10
2018-05-07T06:02:47.461Z,54.10
2018-05-07T06:05:15.328Z,54.40
2018-05-07T06:07:43.126Z,53.40
2018-05-07T06:10:11.061Z,54.80
2018-05-07T06:12:38.927Z,52.40
2018-05-07T06:15:06.722Z,53.00
2018-05-07T06:17:35.377Z,52.40
2018-05-07T06:20:03.350Z,52.30
2018-05-07T06:22:31.245Z,52.50
2018-05-07T06:24:59.760Z,50.40
2018-05-07T06:27:27.511Z,50.40
2018-05-07T06:29:56.247Z,49.50
2018-05-07T06:32:24.041Z,49.50
2018-05-07T06:34:52.698Z,52.70
2018-05-07T06:37:20.562Z,52.20
2018-05-07T06:39:48.330Z,53.20
2018-05-07T06:42:17.013Z,51.70
2018-05-07T06:44:45.085Z,51.80
2018-05-07T06:47:12.951Z,49.70
2018-05-07T06:49:40.746Z,49.10
2018-05-07T06:52:09.471Z,49.70
2018-05-07T06:54:38.086Z,52.10
2018-05-07T06:57:05.851Z,52.00
2018-05-07T06:59:33.717Z,50.50
2018-05-07T07:02:01.584Z,48.30
2018-05-07T07:04:29.451Z,44.30
2018-05-07T07:06:57.316Z,41.90
2018-05-07T07:09:25.321Z,39.20
2018-05-07T07:11:54.003Z,37.20
2018-05-07T07:14:22.528Z,36.00
2018-05-07T07:16:50.348Z,35.90
2018-05-07T07:19:18.287Z,32.90
2018-05-07T07:21:46.240Z,33.40
2018-05-07T07:24:14.840Z,32.60
2018-05-07T07:26:43.227Z,32.50
2018-05-07T07:29:11.085Z,31.60
2018-05-07T07:31:38.951Z,29.10
2018-05-07T07:34:06.876Z,32.00
2018-05-07T07:36:35.401Z,28.20
2018-05-07T07:39:03.371Z,28.10
2018-05-07T07:41:31.241Z,26.20
2018-05-07T07:43:59.207Z,27.30
2018-05-07T07:46:27.073Z,26.70
2018-05-07T07:48:54.867Z,24.60
2018-05-07T07:51:23.421Z,24.00
2018-05-07T07:53:51.385Z,24.00
2018-05-07T07:56:19.256Z,23.40
2018-05-07T07:58:47.122Z,23.10
2018-05-07T08:01:14.921Z,23.50
2018-05-07T08:03:43.573Z,22.30
2018-05-07T08:06:11.442Z,22.20
2018-05-07T08:08:40.228Z,21.90
2018-05-07T08:11:08.195Z,21.90
2018-05-07T08:13:36.062Z,22.00
2018-05-07T08:18:42.690Z,22.40
2018-05-07T08:21:11.336Z,22.60
2018-05-07T08:23:39.202Z,22.60
2018-05-07T08:26:07.069Z,22.60
2018-05-07T08:28:34.869Z,22.20
2018-05-07T08:31:03.620Z,22.50
2018-05-07T08:33:31.490Z,22.50
2018-05-07T08:35:59.355Z,22.90
2018-05-07T08:38:27.220Z,22.20
2018-05-07T08:40:55.088Z,23.10
2018-05-07T08:43:22.887Z,22.40
2018-05-07T08:45:51.540Z,22.70
2018-05-07T08:48:19.404Z,22.70
2018-05-07T08:50:47.224Z,22.20
2018-05-07T08:53:15.828Z,22.00
2018-05-07T08:55:43.825Z,22.10
2018-05-07T08:58:11.691Z,22.10
2018-05-07T09:00:39.558Z,20.90
2018-05-07T09:03:07.422Z,21.50
2018-05-07T09:05:35.947Z,21.90
2018-05-07T09:08:04.615Z,22.10
2018-05-07T09:10:32.457Z,22.10
2018-05-07T09:13:00.323Z,21.20
2018-05-07T09:15:28.189Z,21.80
2018-05-07T09:17:55.980Z,21.90
2018-05-07T09:20:24.535Z,21.90
2018-05-07T09:22:52.489Z,21.90
2018-05-07T09:25:20.678Z,20.20
2018-05-07T09:27:48.545Z,21.20
2018-05-07T09:30:16.412Z,20.30
2018-05-07T09:32:44.205Z,20.10
2018-05-07T09:35:12.146Z,20.40
2018-05-07T09:37:40.012Z,20.70
2018-05-07T09:40:07.981Z,20.40
2018-05-07T09:42:35.856Z,20.50
2018-05-07T09:45:03.715Z,21.30
2018-05-07T09:47:31.580Z,20.60
2018-05-07T09:49:59.373Z,20.30
2018-05-07T09:52:27.312Z,20.80
2018-05-07T09:54:55.179Z,20.80
2018-05-07T09:57:23.045Z,20.80
2018-05-07T09:59:50.833Z,21.40
2018-05-07T10:02:18.678Z,20.50
2018-05-07T10:04:46.748Z,21.10
2018-05-07T10:07:14.542Z,21.50
2018-05-07T10:09:42.482Z,22.50
2018-05-07T10:12:10.276Z,22.20
2018-05-07T10:14:38.680Z,21.20
2018-05-07T10:17:06.551Z,21.90
2018-05-07T10:19:34.562Z,22.40
2018-05-07T10:22:03.398Z,23.50
2018-05-07T10:24:31.945Z,23.80
2018-05-07T10:27:00.005Z,23.80
2018-05-07T10:29:27.871Z,24.90
2018-05-07T10:31:55.738Z,26.70
2018-05-07T10:34:23.605Z,26.10
2018-05-07T10:36:51.399Z,28.40
2018-05-07T10:39:19.336Z,28.70
2018-05-07T10:41:47.115Z,29.60
2018-05-07T10:44:14.877Z,30.00
2018-05-07T10:46:42.731Z,29.50
2018-05-07T10:49:10.780Z,29.70
2018-05-07T10:51:39.315Z,30.90
2018-05-07T10:54:08.073Z,31.90
2018-05-07T10:56:35.857Z,31.80
2018-05-07T10:59:04.452Z,30.60
2018-05-07T11:01:33.034Z,30.80
2018-05-07T11:04:01.689Z,30.40
2018-05-07T11:06:29.466Z,30.40
2018-05-07T11:08:57.996Z,32.60
2018-05-07T11:11:25.768Z,32.50
2018-05-07T11:13:53.961Z,34.70
2018-05-07T11:16:21.725Z,33.10
2018-05-07T11:18:49.719Z,33.70
2018-05-07T11:21:17.506Z,33.90
2018-05-07T11:23:47.384Z,33.80
2018-05-07T11:26:15.200Z,33.80
2018-05-07T11:28:43.536Z,34.60
2018-05-07T11:31:11.363Z,33.20
2018-05-07T11:33:39.923Z,34.70
2018-05-07T11:36:08.523Z,35.00
2018-05-07T11:38:37.000Z,35.00
2018-05-07T11:41:04.765Z,33.30
2018-05-07T11:43:32.841Z,32.40
2018-05-07T11:46:00.593Z,32.10
2018-05-07T11:48:29.694Z,34.00
2018-05-07T11:50:57.496Z,33.90
2018-05-07T11:53:25.772Z,34.60
2018-05-07T11:55:53.556Z,34.40
2018-05-07T11:58:21.325Z,34.60
2018-05-07T12:00:49.136Z,34.90
2018-05-07T12:03:16.969Z,35.80
2018-05-07T12:05:44.729Z,34.90
2018-05-07T12:08:12.485Z,35.60
2018-05-07T12:10:40.240Z,36.30
2018-05-07T12:13:08.065Z,36.10
2018-05-07T12:15:35.833Z,36.10
2018-05-07T12:18:03.607Z,36.50
2018-05-07T12:20:31.374Z,35.90
2018-05-07T12:22:59.156Z,37.10
2018-05-07T12:25:27.047Z,36.40
2018-05-07T12:27:54.814Z,35.30
2018-05-07T12:30:22.754Z,36.10
2018-05-07T12:32:50.515Z,33.60
2018-05-07T12:35:18.384Z,33.60
2018-05-07T12:37:46.220Z,34.30
2018-05-07T12:40:14.121Z,35.60
2018-05-07T12:42:41.983Z,36.10
2018-05-07T12:45:09.778Z,35.50
2018-05-07T12:47:37.717Z,36.20
2018-05-07T12:50:05.480Z,35.60
2018-05-07T12:52:33.289Z,36.00
2018-05-07T12:55:01.828Z,35.40
2018-05-07T12:57:29.591Z,34.60
2018-05-07T12:59:57.356Z,36.30
2018-05-07T13:02:25.112Z,35.50
2018-05-07T13:04:52.886Z,36.00
2018-05-07T13:07:20.670Z,35.80
2018-05-07T13:09:48.429Z,36.30
2018-05-07T13:12:16.196Z,35.70
2018-05-07T13:14:44.147Z,37.00
2018-05-07T13:17:11.990Z,36.10
2018-05-07T13:19:39.712Z,35.40
2018-05-07T13:22:08.272Z,35.40
2018-05-07T13:24:36.033Z,34.70
2018-05-07T13:27:03.939Z,36.50
2018-05-07T13:29:32.892Z,36.70
2018-05-07T13:32:00.661Z,36.70
2018-05-07T13:34:28.728Z,35.10
2018-05-07T13:36:57.012Z,36.10
2018-05-07T13:39:25.225Z,36.60
2018-05-07T13:41:52.981Z,37.50
2018-05-07T13:44:21.496Z,36.70
2018-05-07T13:46:49.292Z,36.70
2018-05-07T13:49:17.582Z,38.40
2018-05-07T13:51:45.338Z,36.70
2018-05-07T13:54:13.130Z,35.30
2018-05-07T13:56:42.057Z,35.90
2018-05-07T13:59:09.884Z,35.90
2018-05-07T14:01:38.464Z,37.30
2018-05-07T14:04:06.996Z,37.20
2018-05-07T14:06:34.879Z,37.20
2018-05-07T14:09:02.844Z,36.80
2018-05-07T14:11:31.668Z,38.80
2018-05-07T14:13:59.585Z,38.20
2018-05-07T14:16:27.979Z,38.40
2018-05-07T14:18:56.256Z,36.70
2018-05-07T14:21:24.015Z,36.20
2018-05-07T14:23:51.779Z,35.50
2018-05-07T14:26:19.575Z,35.30
2018-05-07T14:28:48.118Z,34.70
2018-05-07T14:31:15.941Z,34.70
2018-05-07T14:33:44.485Z,33.30
2018-05-07T14:36:12.242Z,33.30
2018-05-07T14:38:40.020Z,33.90
2018-05-07T14:41:08.594Z,33.30
2018-05-07T14:43:36.968Z,33.10
2018-05-07T14:46:04.753Z,32.90
2018-05-07T14:48:33.133Z,34.20
2018-05-07T14:51:00.910Z,34.70
2018-05-07T14:53:29.433Z,34.60
2018-05-07T14:55:57.310Z,34.60
2018-05-07T14:58:25.178Z,35.30
2018-05-07T15:00:53.059Z,34.80
2018-05-07T15:03:21.233Z,35.20
2018-05-07T15:05:49.345Z,35.40
2018-05-07T15:08:17.996Z,33.50
2018-05-07T15:10:45.959Z,33.60
2018-05-07T15:13:13.931Z,32.80
2018-05-07T15:15:42.761Z,32.40
2018-05-07T15:18:10.497Z,32.30
2018-05-07T15:20:38.260Z,31.80
2018-05-07T15:23:06.024Z,30.60
2018-05-07T15:25:33.839Z,30.90
2018-05-07T15:28:01.621Z,31.70
2018-05-07T15:30:29.476Z,31.60
2018-05-07T15:32:57.237Z,33.20
2018-05-07T15:35:25.137Z,32.90
2018-05-07T15:37:53.106Z,34.00
2018-05-07T15:40:20.973Z,32.50
2018-05-07T15:42:48.942Z,33.50
2018-05-07T15:45:16.736Z,35.30
2018-05-07T15:47:45.289Z,34.80
2018-05-07T15:50:13.157Z,34.60
2018-05-07T15:52:40.928Z,34.00
2018-05-07T15:55:08.741Z,35.30
2018-05-07T15:57:36.687Z,35.20
2018-05-07T16:00:04.624Z,36.00
2018-05-07T16:02:32.498Z,36.00
2018-05-07T16:05:00.357Z,36.70
2018-05-07T16:07:28.222Z,37.20
2018-05-07T16:09:56.090Z,37.50
2018-05-07T16:12:23.846Z,36.60
2018-05-07T16:14:51.730Z,36.00
2018-05-07T16:17:20.308Z,37.20
2018-05-07T16:19:48.066Z,37.20
2018-05-07T16:22:15.879Z,36.50
2018-05-07T16:24:43.641Z,37.40
2018-05-07T16:27:12.228Z,37.00
2018-05-07T16:29:40.921Z,37.80
2018-05-07T16:32:09.456Z,38.60
2018-05-07T16:34:37.352Z,38.60
2018-05-07T16:37:06.103Z,39.10
2018-05-07T16:39:33.989Z,39.10
2018-05-07T16:42:02.860Z,41.40
2018-05-07T16:44:30.609Z,40.70
2018-05-07T16:46:58.366Z,40.70
2018-05-07T16:49:26.255Z,40.50
2018-05-07T16:51:54.012Z,39.70
2018-05-07T16:54:21.801Z,38.50
2018-05-07T16:56:49.669Z,40.20
2018-05-07T16:59:17.517Z,38.90
2018-05-07T17:01:45.280Z,40.20
2018-05-07T17:04:13.147Z,39.60
2018-05-07T17:06:41.014Z,38.90
2018-05-07T17:09:08.817Z,38.00
2018-05-07T17:11:37.333Z,38.80
2018-05-07T17:14:05.243Z,38.70
2018-05-07T17:16:32.902Z,38.70
2018-05-07T17:19:00.657Z,39.20
2018-05-07T17:21:28.417Z,39.10
2018-05-07T17:23:56.224Z,38.70
2018-05-07T17:26:24.746Z,38.80
2018-05-07T17:28:52.631Z,38.80
2018-05-07T17:31:20.396Z,38.00
2018-05-07T17:33:48.291Z,38.50
2018-05-07T17:36:16.830Z,39.40
2018-05-07T17:38:44.611Z,39.40
2018-05-07T17:41:12.381Z,38.40
2018-05-07T17:43:40.241Z,39.20
2018-05-07T17:46:25.650Z,39.80
2018-05-07T17:48:56.141Z,42.20
2018-05-07T17:51:23.921Z,40.70
2018-05-07T17:53:51.672Z,40.40
2018-05-07T17:56:19.542Z,38.90
2018-05-07T17:58:47.301Z,38.90
2018-05-07T18:01:15.278Z,39.20
2018-05-07T18:03:43.070Z,40.90
2018-05-07T18:06:10.818Z,39.60
2018-05-07T18:08:38.610Z,38.20
2018-05-07T18:11:07.257Z,38.80
2018-05-07T18:13:35.120Z,38.80
2018-05-07T18:16:03.082Z,41.30
2018-05-07T18:18:31.167Z,38.90
2018-05-07T18:20:59.528Z,39.10
2018-05-07T18:23:27.286Z,39.00
2018-05-07T18:25:55.095Z,39.40
2018-05-07T18:28:22.851Z,41.40
2018-05-07T18:30:50.624Z,40.20
2018-05-07T18:33:18.375Z,41.50
2018-05-07T18:35:47.012Z,41.30
2018-05-07T18:38:15.350Z,41.30
2018-05-07T18:40:43.133Z,42.30
2018-05-07T18:43:11.644Z,49.50
2018-05-07T18:45:39.454Z,49.50
2018-05-07T18:48:07.300Z,45.40
2018-05-07T18:50:35.168Z,47.70
2018-05-07T18:53:03.034Z,45.00
2018-05-07T18:55:30.905Z,49.30
2018-05-07T18:57:58.708Z,48.90
2018-05-07T19:00:27.213Z,46.60
2018-05-07T19:02:54.977Z,46.60
2018-05-07T19:05:22.806Z,48.10
2018-05-07T19:07:50.642Z,48.90
2018-05-07T19:10:18.510Z,47.80
2018-05-07T19:12:46.300Z,45.00
2018-05-07T19:15:14.246Z,47.40
2018-05-07T19:17:42.113Z,47.40
2018-05-07T19:20:10.078Z,47.30
2018-05-07T19:22:37.945Z,49.70
2018-05-07T19:25:05.761Z,46.30
2018-05-07T19:27:34.400Z,43.60
2018-05-07T19:30:02.465Z,43.60
2018-05-07T19:32:30.332Z,47.70
2018-05-07T19:34:58.203Z,46.70
2018-05-07T19:37:26.066Z,46.60
2018-05-07T19:39:54.015Z,47.00
2018-05-07T19:42:22.515Z,47.00
2018-05-07T19:44:50.382Z,47.00
2018-05-07T19:47:18.248Z,46.90
2018-05-07T19:49:46.115Z,49.20
2018-05-07T19:52:13.909Z,47.60
2018-05-07T19:54:41.851Z,48.90
2018-05-07T19:57:09.657Z,47.80
2018-05-07T19:59:38.298Z,46.80
2018-05-07T20:02:06.311Z,46.80
2018-05-07T20:04:35.361Z,45.10
2018-05-07T20:07:03.158Z,45.00
2018-05-07T20:09:32.539Z,47.90
2018-05-07T20:12:01.935Z,46.60
2018-05-07T20:14:29.798Z,46.50
2018-05-07T20:16:58.098Z,46.70
2018-05-07T20:19:26.761Z,46.60
2018-05-07T20:21:54.734Z,46.60
2018-05-07T20:24:22.903Z,48.70
2018-05-07T20:26:50.771Z,48.50
2018-05-07T20:29:19.077Z,46.60
2018-05-07T20:31:47.458Z,48.20
2018-05-07T20:34:16.584Z,48.10
2018-05-07T20:36:45.062Z,47.90
2018-05-07T20:39:13.410Z,47.00
2018-05-07T20:41:41.180Z,46.20
2018-05-07T20:44:10.444Z,48.30
2018-05-07T20:46:39.182Z,48.10
2018-05-07T20:49:07.700Z,48.20
2018-05-07T20:51:36.501Z,48.30
2018-05-07T20:54:04.369Z,48.30
2018-05-07T20:56:32.234Z,47.70
2018-05-07T20:59:00.923Z,47.80
2018-05-07T21:01:30.230Z,47.50
2018-05-07T21:03:58.013Z,47.50
2018-05-07T21:06:25.953Z,47.40
2018-05-07T21:08:54.333Z,47.40
2018-05-07T21:11:22.241Z,48.10
2018-05-07T21:13:50.764Z,48.10
2018-05-07T21:16:19.144Z,48.20
2018-05-07T21:18:46.897Z,48.40
2018-05-07T21:21:15.057Z,50.20
2018-05-07T21:23:42.863Z,50.40
2018-05-07T21:26:10.730Z,50.00
2018-05-07T21:28:39.005Z,49.50
2018-05-07T21:31:07.219Z,49.20
2018-05-07T21:33:35.744Z,50.00
2018-05-07T21:36:04.315Z,50.00
2018-05-07T21:38:32.069Z,49.80
2018-05-07T21:40:59.819Z,49.70
2018-05-07T21:43:29.059Z,49.90
2018-05-07T21:45:57.457Z,50.00
2018-05-07T21:48:26.169Z,50.30
2018-05-07T21:50:53.925Z,51.60
2018-05-07T21:53:22.345Z,52.00
2018-05-07T21:55:50.109Z,50.50
2018-05-07T21:58:18.350Z,50.40
2018-05-07T22:00:46.117Z,50.00
2018-05-07T22:03:14.640Z,50.40
2018-05-07T22:05:42.393Z,50.40
2018-05-07T22:08:10.157Z,51.40
2018-05-07T22:10:37.914Z,51.40
2018-05-07T22:13:05.675Z,51.00
2018-05-07T22:15:33.509Z,51.60
2018-05-07T22:18:01.307Z,52.40
2018-05-07T22:20:29.065Z,51.30
2018-05-07T22:22:57.632Z,51.90
2018-05-07T22:25:25.397Z,51.90
2018-05-07T22:27:53.238Z,52.70
2018-05-07T22:30:20.996Z,53.40
2018-05-07T22:32:48.995Z,51.50
2018-05-07T22:35:17.547Z,52.40
2018-05-07T22:37:45.500Z,52.20
2018-05-07T22:40:13.342Z,52.20
2018-05-07T22:42:41.658Z,51.20
2018-05-07T22:45:09.529Z,51.90
2018-05-07T22:47:37.392Z,52.90
2018-05-07T22:50:06.708Z,52.20
2018-05-07T22:52:35.392Z,52.80
2018-05-07T22:55:05.740Z,52.70
2018-05-07T22:57:34.488Z,53.10
2018-05-07T23:00:02.459Z,53.10
2018-05-07T23:02:30.432Z,53.00
2018-05-07T23:05:00.660Z,52.90
2018-05-07T23:07:28.515Z,53.30
2018-05-07T23:09:56.384Z,53.20
2018-05-07T23:12:24.248Z,54.00
2018-05-07T23:14:52.114Z,53.70
2018-05-07T23:17:20.084Z,53.90
2018-05-07T23:19:47.950Z,54.70
2018-05-07T23:22:15.715Z,54.10
2018-05-07T23:24:43.584Z,53.10
2018-05-07T23:27:11.549Z,53.60
2018-05-07T23:29:39.440Z,53.10
2018-05-07T23:32:07.386Z,53.80
2018-05-07T23:34:35.253Z,53.50
2018-05-07T23:37:03.221Z,53.10
2018-05-07T23:39:31.088Z,53.00
2018-05-07T23:41:59.056Z,53.60
2018-05-07T23:44:26.924Z,54.50
2018-05-07T23:46:54.789Z,54.10
2018-05-07T23:49:22.656Z,53.80
2018-05-07T23:51:50.524Z,54.00
2018-05-07T23:54:18.391Z,53.30
2018-05-07T23:56:46.256Z,53.30
2018-05-07T23:59:14.226Z,53.80
